Historyczne dane pomiarowe

Dodano dane terminowe – wersja testowa.

Dane z okresu 1951-2019

Wersja bazy: 1.34 [2019-03-16, lista zmian], aktualizacja planowana na 2019-04-15

Dane meteo z obszaru Polski uzyskane na podstawie danych udostępnionych przez Instytut Meteorologii i Gospodarki Wodnej – Państwowy Instytut Badawczy.

 

Wybierz Datę:    

       

TemperaturaWilgotnośćZachmurzenieWiatrCiśnienieWidzialnośćZjawiska
 Data    tng td wb rh cc ccl cl cm ch dir g1 g2 mslp ppp      
1999-07-28 00:00:00 14.3--- 10.2 12.076wxwxwx3wx--1021.3 998.2 0.0---wx
1999-07-28 01:00:00 14.2--- 10.3 12.077wxwxwx4wx--1021.3 998.2----wx
1999-07-28 02:00:00 14.3--- 9.8 11.874wxwxwx4wx--1021.4 998.3----wx
1999-07-28 03:00:00 14.0--- 8.5 11.069wxwxwx2wx--1021.4 998.3----wx
1999-07-28 04:00:00 14.2--- 9.9 11.875wxwxwx2wx--1021.5 998.4----wx
1999-07-28 05:00:00 14.7--- 11.4 12.881wxwxwx2wx--1021.6 998.6----wx
1999-07-28 06:00:00 16.3--- 11.8 13.775wxwxwx2wx--1021.9 999.0 0.0---wx
1999-07-28 07:00:00 18.1--- 12.0 14.568wxwxwx2wx--1021.9 999.1----wx
1999-07-28 08:00:00 19.7--- 9.7 14.053wxwxwx3wx--1021.9 999.2----wx
1999-07-28 09:00:00 20.3--- 9.9 14.351wxwxwx3wx--1021.8 999.2----wx
1999-07-28 10:00:00 20.1--- 8.9 13.849wxwxwx4wx--1021.6 999.0----wx
1999-07-28 11:00:00 21.7--- 9.1 14.544wxwxwx4wx--1021.1 998.6----wx
1999-07-28 12:00:00 22.6--- 7.3 14.137wxwxwx2wx--1020.6 998.2 0.0---wx
1999-07-28 13:00:00 23.9--- 7.0 14.534wxwxwx2wx--1020.2 997.9----wx
1999-07-28 14:00:00 23.9--- 8.7 15.238wxwxwx3wx--1020.0 997.7----wx
1999-07-28 15:00:00 23.2--- 8.4 14.839wxwxwx3wx--1019.9 997.5----wx
1999-07-28 16:00:00 23.9--- 7.3 14.634wxwxwx3wx--1019.5 997.2----wx
1999-07-28 17:00:00 23.6--- 6.8 14.334wxwxwx3wx--1019.5 997.2----wx
1999-07-28 18:00:00 22.6--- 7.1 14.037wxwxwx2wx--1019.7 997.3 0.0---wx
1999-07-28 19:00:00 20.9--- 6.8 13.240wxwxwx2wx--1020.2 997.7----wx
1999-07-28 20:00:00 20.4--- 7.0 13.142wxwx2wx--1020.7 998.1----wx
1999-07-28 21:00:00 18.9--- 7.3 12.647wxwx3wx--1021.3 998.6----wx
1999-07-28 22:00:00 18.2--- 7.8 12.551wxwx4wx--1021.7 998.9----wx
1999-07-28 23:00:00 17.3--- 8.4 12.456wxwx4wx--1021.8 999.0----wx

 

Źródłem pochodzenia danych jest Instytut Meteorologii i Gospodarki Wodnej – Państwowy Instytut Badawczy. Dane Instytutu Meteorologii i Gospodarki Wodnej – Państwowego Instytutu Badawczego zostały przetworzone.

Dane źródłowe można odnaleźć na stronie https://dane.imgw.pl